WIA11 VNKT-VNLK
Flight info
| Callsign | WIA11 |
|---|---|
| Flight time | 0h 31m |
| Altitude | 13000 |
| Route | IGRIS1E KIMTI VNPL |
| Aircraft | DHC6/L-SDFGR/C |
Departure
| Time | 2026-05-05 11:15 |
|---|---|
| Airport | Tribhuvan International Airport (VNKT) |
Arrival
| Time | 2026-05-05 11:46 |
|---|---|
| Airport | Tenzing-Hillary Airport (VNLK) |
| Time | Latitude | Longitude | Altitude | Speed | Heading |
|---|---|---|---|---|---|
| 2026-05-05 11:07 | 27.70552 | 85.35994 | 4375 ft | 0 kts | 245° |
| 2026-05-05 11:12 | 27.70533 | 85.35983 | 4373 ft | 7 kts | 161° |
| 2026-05-05 11:12 | 27.70457 | 85.36007 | 4380 ft | 13 kts | 167° |
| 2026-05-05 11:12 | 27.70394 | 85.36030 | 4379 ft | 9 kts | 155° |
| 2026-05-05 11:13 | 27.70267 | 85.36067 | 4377 ft | 23 kts | 191° |
| 2026-05-05 11:13 | 27.70114 | 85.36003 | 4372 ft | 23 kts | 198° |
| 2026-05-05 11:13 | 27.70014 | 85.35962 | 4362 ft | 10 kts | 203° |
| 2026-05-05 11:13 | 27.69944 | 85.35929 | 4368 ft | 9 kts | 194° |
| 2026-05-05 11:14 | 27.69847 | 85.35997 | 4361 ft | 40 kts | 199° |
| 2026-05-05 11:14 | 27.69434 | 85.35814 | 4348 ft | 86 kts | 199° |
| 2026-05-05 11:14 | 27.68801 | 85.35550 | 4517 ft | 105 kts | 205° |
| 2026-05-05 11:14 | 27.68139 | 85.35127 | 4704 ft | 116 kts | 218° |
| 2026-05-05 11:15 | 27.67491 | 85.34539 | 4926 ft | 124 kts | 226° |
| 2026-05-05 11:15 | 27.66836 | 85.33896 | 5173 ft | 129 kts | 209° |
| 2026-05-05 11:15 | 27.65970 | 85.33963 | 5425 ft | 134 kts | 148° |
| 2026-05-05 11:15 | 27.65400 | 85.34867 | 5451 ft | 150 kts | 100° |
| 2026-05-05 11:16 | 27.65323 | 85.35988 | 5800 ft | 140 kts | 94° |
| 2026-05-05 11:16 | 27.65200 | 85.37053 | 6116 ft | 135 kts | 97° |
| 2026-05-05 11:16 | 27.65077 | 85.38089 | 6423 ft | 132 kts | 97° |
| 2026-05-05 11:16 | 27.64953 | 85.39113 | 6703 ft | 131 kts | 97° |
| 2026-05-05 11:17 | 27.64830 | 85.40134 | 6988 ft | 131 kts | 97° |
| 2026-05-05 11:17 | 27.64704 | 85.41158 | 7275 ft | 132 kts | 96° |
| 2026-05-05 11:17 | 27.64580 | 85.42192 | 7577 ft | 135 kts | 95° |
| 2026-05-05 11:17 | 27.64451 | 85.43246 | 7887 ft | 135 kts | 98° |
| 2026-05-05 11:18 | 27.64322 | 85.44297 | 8208 ft | 136 kts | 97° |
| 2026-05-05 11:18 | 27.64196 | 85.45350 | 8537 ft | 136 kts | 97° |
| 2026-05-05 11:18 | 27.64064 | 85.46393 | 8854 ft | 134 kts | 97° |
| 2026-05-05 11:18 | 27.63938 | 85.47422 | 9162 ft | 131 kts | 97° |
| 2026-05-05 11:19 | 27.63812 | 85.48438 | 9458 ft | 130 kts | 96° |
| 2026-05-05 11:19 | 27.63688 | 85.49455 | 9764 ft | 132 kts | 96° |
| 2026-05-05 11:19 | 27.63555 | 85.50501 | 10096 ft | 137 kts | 98° |
| 2026-05-05 11:19 | 27.63412 | 85.51562 | 10424 ft | 136 kts | 96° |
| 2026-05-05 11:20 | 27.63294 | 85.52611 | 10735 ft | 134 kts | 96° |
| 2026-05-05 11:20 | 27.63193 | 85.53624 | 11016 ft | 130 kts | 84° |
| 2026-05-05 11:20 | 27.63630 | 85.54510 | 11156 ft | 133 kts | 40° |
| 2026-05-05 11:20 | 27.64247 | 85.55237 | 11469 ft | 127 kts | 55° |
| 2026-05-05 11:21 | 27.64300 | 85.56256 | 11537 ft | 146 kts | 116° |
| 2026-05-05 11:21 | 27.63851 | 85.57230 | 11903 ft | 135 kts | 112° |
| 2026-05-05 11:21 | 27.63512 | 85.58200 | 12222 ft | 131 kts | 112° |
| 2026-05-05 11:21 | 27.63160 | 85.59144 | 12518 ft | 130 kts | 112° |
| 2026-05-05 11:22 | 27.62815 | 85.60082 | 12814 ft | 130 kts | 113° |
| 2026-05-05 11:22 | 27.62460 | 85.61040 | 12999 ft | 138 kts | 113° |
| 2026-05-05 11:22 | 27.62065 | 85.62092 | 13053 ft | 151 kts | 113° |
| 2026-05-05 11:22 | 27.61658 | 85.63187 | 13282 ft | 150 kts | 113° |
| 2026-05-05 11:23 | 27.61258 | 85.64262 | 13490 ft | 150 kts | 113° |
| 2026-05-05 11:23 | 27.60853 | 85.65355 | 13598 ft | 156 kts | 113° |
| 2026-05-05 11:23 | 27.60434 | 85.66481 | 13808 ft | 155 kts | 113° |
| 2026-05-05 11:23 | 27.60014 | 85.67614 | 13958 ft | 158 kts | 114° |
| 2026-05-05 11:24 | 27.59606 | 85.68783 | 14073 ft | 162 kts | 106° |
| 2026-05-05 11:24 | 27.59401 | 85.70038 | 14191 ft | 163 kts | 99° |
| 2026-05-05 11:24 | 27.59208 | 85.71313 | 14258 ft | 167 kts | 101° |
| 2026-05-05 11:24 | 27.58980 | 85.72619 | 14352 ft | 171 kts | 101° |
| 2026-05-05 11:25 | 27.58764 | 85.73916 | 14581 ft | 165 kts | 102° |
| 2026-05-05 11:25 | 27.58546 | 85.75191 | 14722 ft | 166 kts | 102° |
| 2026-05-05 11:25 | 27.58330 | 85.76463 | 14877 ft | 166 kts | 102° |
| 2026-05-05 11:25 | 27.58111 | 85.77774 | 14907 ft | 173 kts | 102° |
| 2026-05-05 11:26 | 27.57883 | 85.79122 | 14976 ft | 176 kts | 102° |
| 2026-05-05 11:26 | 27.57648 | 85.80500 | 14986 ft | 182 kts | 102° |
| 2026-05-05 11:26 | 27.57404 | 85.81917 | 14990 ft | 185 kts | 102° |
| 2026-05-05 11:26 | 27.57157 | 85.83351 | 14994 ft | 188 kts | 102° |
| 2026-05-05 11:27 | 27.56909 | 85.84784 | 15044 ft | 189 kts | 103° |
| 2026-05-05 11:27 | 27.56617 | 85.86230 | 15034 ft | 192 kts | 105° |
| 2026-05-05 11:27 | 27.56271 | 85.87717 | 14888 ft | 200 kts | 107° |
| 2026-05-05 11:27 | 27.55871 | 85.89226 | 14817 ft | 201 kts | 109° |
| 2026-05-05 11:28 | 27.55430 | 85.90726 | 14726 ft | 202 kts | 109° |
| 2026-05-05 11:28 | 27.55282 | 85.92303 | 14556 ft | 205 kts | 85° |
| 2026-05-05 11:28 | 27.55346 | 85.93913 | 14397 ft | 207 kts | 93° |
| 2026-05-05 11:28 | 27.55121 | 85.95516 | 14240 ft | 208 kts | 103° |
| 2026-05-05 11:29 | 27.54796 | 85.97110 | 14077 ft | 209 kts | 103° |
| 2026-05-05 11:29 | 27.54508 | 85.98719 | 13911 ft | 210 kts | 101° |
| 2026-05-05 11:29 | 27.54236 | 86.00335 | 13723 ft | 209 kts | 101° |
| 2026-05-05 11:29 | 27.53959 | 86.01947 | 13519 ft | 210 kts | 101° |
| 2026-05-05 11:30 | 27.53680 | 86.03562 | 13263 ft | 210 kts | 101° |
| 2026-05-05 11:30 | 27.53401 | 86.05177 | 13057 ft | 211 kts | 101° |
| 2026-05-05 11:30 | 27.53124 | 86.06781 | 12982 ft | 204 kts | 101° |
| 2026-05-05 11:30 | 27.52855 | 86.08332 | 12972 ft | 200 kts | 101° |
| 2026-05-05 11:31 | 27.52594 | 86.09851 | 12970 ft | 196 kts | 101° |
| 2026-05-05 11:31 | 27.52335 | 86.11348 | 12965 ft | 194 kts | 101° |
| 2026-05-05 11:31 | 27.52076 | 86.12834 | 12957 ft | 192 kts | 101° |
| 2026-05-05 11:31 | 27.51822 | 86.14304 | 12954 ft | 189 kts | 101° |
| 2026-05-05 11:32 | 27.51571 | 86.15745 | 12950 ft | 188 kts | 101° |
| 2026-05-05 11:32 | 27.51321 | 86.17188 | 12956 ft | 188 kts | 101° |
| 2026-05-05 11:32 | 27.51070 | 86.18632 | 12982 ft | 188 kts | 100° |
| 2026-05-05 11:32 | 27.50817 | 86.20076 | 12985 ft | 188 kts | 100° |
| 2026-05-05 11:33 | 27.50566 | 86.21531 | 12984 ft | 189 kts | 100° |
| 2026-05-05 11:33 | 27.50317 | 86.22956 | 12984 ft | 188 kts | 99° |
| 2026-05-05 11:33 | 27.50061 | 86.24422 | 12985 ft | 188 kts | 100° |
| 2026-05-05 11:33 | 27.49811 | 86.25862 | 13003 ft | 188 kts | 99° |
| 2026-05-05 11:34 | 27.49856 | 86.27309 | 12966 ft | 185 kts | 68° |
| 2026-05-05 11:34 | 27.50409 | 86.28594 | 12990 ft | 184 kts | 62° |
| 2026-05-05 11:34 | 27.50941 | 86.29889 | 12994 ft | 185 kts | 64° |
| 2026-05-05 11:34 | 27.51482 | 86.31212 | 12993 ft | 185 kts | 63° |
| 2026-05-05 11:35 | 27.52028 | 86.32532 | 12999 ft | 187 kts | 63° |
| 2026-05-05 11:35 | 27.52575 | 86.33853 | 13025 ft | 185 kts | 62° |
| 2026-05-05 11:35 | 27.53116 | 86.35157 | 13025 ft | 183 kts | 63° |
| 2026-05-05 11:35 | 27.53650 | 86.36446 | 13021 ft | 182 kts | 63° |
| 2026-05-05 11:36 | 27.54187 | 86.37753 | 13018 ft | 185 kts | 63° |
| 2026-05-05 11:36 | 27.54729 | 86.39068 | 13037 ft | 186 kts | 63° |
| 2026-05-05 11:36 | 27.55274 | 86.40391 | 13088 ft | 187 kts | 63° |
| 2026-05-05 11:36 | 27.55937 | 86.41627 | 13072 ft | 180 kts | 48° |
| 2026-05-05 11:37 | 27.56380 | 86.42934 | 13069 ft | 184 kts | 83° |
| 2026-05-05 11:37 | 27.56429 | 86.44382 | 13076 ft | 186 kts | 86° |
| 2026-05-05 11:37 | 27.56480 | 86.45847 | 13083 ft | 188 kts | 86° |
| 2026-05-05 11:37 | 27.56530 | 86.47325 | 13092 ft | 189 kts | 86° |
| 2026-05-05 11:38 | 27.56574 | 86.48808 | 13083 ft | 190 kts | 86° |
| 2026-05-05 11:38 | 27.56627 | 86.50286 | 13126 ft | 188 kts | 86° |
| 2026-05-05 11:38 | 27.56681 | 86.51760 | 13115 ft | 189 kts | 86° |
| 2026-05-05 11:38 | 27.56737 | 86.53218 | 13121 ft | 189 kts | 86° |
| 2026-05-05 11:39 | 27.56792 | 86.54696 | 13113 ft | 189 kts | 86° |
| 2026-05-05 11:39 | 27.56846 | 86.56172 | 13116 ft | 188 kts | 86° |
| 2026-05-05 11:39 | 27.56915 | 86.57649 | 13105 ft | 190 kts | 86° |
| 2026-05-05 11:39 | 27.57020 | 86.59116 | 13104 ft | 186 kts | 86° |
| 2026-05-05 11:40 | 27.57125 | 86.60572 | 13125 ft | 187 kts | 86° |
| 2026-05-05 11:40 | 27.57236 | 86.62042 | 13108 ft | 189 kts | 85° |
| 2026-05-05 11:40 | 27.57347 | 86.63511 | 13106 ft | 187 kts | 86° |
| 2026-05-05 11:40 | 27.57454 | 86.64971 | 13135 ft | 187 kts | 85° |
| 2026-05-05 11:41 | 27.57558 | 86.66433 | 13126 ft | 188 kts | 86° |
| 2026-05-05 11:41 | 27.57662 | 86.67892 | 13138 ft | 186 kts | 86° |
| 2026-05-05 11:41 | 27.57774 | 86.69360 | 13138 ft | 188 kts | 85° |
| 2026-05-05 11:41 | 27.57886 | 86.70833 | 13133 ft | 189 kts | 85° |
| 2026-05-05 11:42 | 27.57759 | 86.72250 | 13097 ft | 184 kts | 124° |
| 2026-05-05 11:42 | 27.56627 | 86.72840 | 12346 ft | 210 kts | 199° |
| 2026-05-05 11:42 | 27.55855 | 86.71565 | 11642 ft | 218 kts | 267° |
| 2026-05-05 11:42 | 27.55938 | 86.69837 | 11023 ft | 224 kts | 277° |
| 2026-05-05 11:43 | 27.56622 | 86.68418 | 10809 ft | 195 kts | 326° |
| 2026-05-05 11:43 | 27.57867 | 86.68253 | 10509 ft | 178 kts | 12° |
| 2026-05-05 11:43 | 27.59029 | 86.68627 | 10192 ft | 167 kts | 14° |
| 2026-05-05 11:43 | 27.60045 | 86.69000 | 10073 ft | 153 kts | 20° |
| 2026-05-05 11:44 | 27.61139 | 86.69436 | 9835 ft | 173 kts | 18° |
| 2026-05-05 11:44 | 27.62298 | 86.69849 | 9719 ft | 178 kts | 13° |
| 2026-05-05 11:44 | 27.63559 | 86.69933 | 9379 ft | 185 kts | 356° |
| 2026-05-05 11:44 | 27.64741 | 86.69868 | 9327 ft | 155 kts | 357° |
| 2026-05-05 11:45 | 27.65656 | 86.69945 | 9269 ft | 111 kts | 14° |
| 2026-05-05 11:45 | 27.66432 | 86.70200 | 9156 ft | 118 kts | 14° |
| 2026-05-05 11:45 | 27.67183 | 86.70489 | 9169 ft | 112 kts | 17° |
| 2026-05-05 11:45 | 27.67855 | 86.70913 | 9150 ft | 111 kts | 54° |
| 2026-05-05 11:46 | 27.68071 | 86.71760 | 9177 ft | 119 kts | 75° |
| 2026-05-05 11:46 | 27.68458 | 86.72511 | 9233 ft | 103 kts | 63° |
| 2026-05-05 11:46 | 27.68734 | 86.73054 | 9430 ft | 30 kts | 58° |
| 2026-05-05 11:46 | 27.68774 | 86.73169 | 9468 ft | 21 kts | 150° |
| 2026-05-05 11:47 | 27.68756 | 86.73198 | 9469 ft | 0 kts | 63° |
| 2026-05-05 11:49 | 27.68756 | 86.73199 | 9469 ft | 1 kts | 50° |
| 2026-05-05 11:49 | 27.68745 | 86.73085 | 9454 ft | 42 kts | 239° |
| 2026-05-05 11:49 | 27.68452 | 86.72538 | 9280 ft | 106 kts | 235° |
| 2026-05-05 11:50 | 27.68022 | 86.72272 | 9317 ft | 118 kts | 176° |
| 2026-05-05 11:50 | 27.67526 | 86.72947 | 9609 ft | 121 kts | 92° |
| 2026-05-05 11:50 | 27.67533 | 86.73820 | 10153 ft | 103 kts | 99° |
| 2026-05-05 11:50 | 27.67402 | 86.74619 | 10461 ft | 101 kts | 83° |
| 2026-05-05 11:51 | 27.67835 | 86.75097 | 10728 ft | 96 kts | 344° |
| 2026-05-05 11:51 | 27.68103 | 86.74468 | 10714 ft | 100 kts | 281° |
| 2026-05-05 11:51 | 27.68269 | 86.73668 | 10873 ft | 117 kts | 279° |
| 2026-05-05 11:51 | 27.68544 | 86.72581 | 10587 ft | 157 kts | 294° |
| 2026-05-05 11:52 | 27.69234 | 86.71570 | 10360 ft | 181 kts | 310° |
| 2026-05-05 11:52 | 27.70083 | 86.70492 | 10353 ft | 177 kts | 312° |
| 2026-05-05 11:52 | 27.71128 | 86.70101 | 10631 ft | 161 kts | 1° |
| 2026-05-05 11:52 | 27.72297 | 86.70248 | 10470 ft | 172 kts | 5° |
| 2026-05-05 11:53 | 27.73297 | 86.70754 | 10526 ft | 161 kts | 27° |
| 2026-05-05 11:53 | 27.74426 | 86.71053 | 10392 ft | 172 kts | 5° |
| 2026-05-05 11:53 | 27.75570 | 86.71281 | 10459 ft | 167 kts | 28° |
| 2026-05-05 11:53 | 27.76324 | 86.72219 | 10773 ft | 140 kts | 62° |
| 2026-05-05 11:54 | 27.76942 | 86.72957 | 11099 ft | 130 kts | 33° |
| 2026-05-05 11:54 | 27.77403 | 86.73686 | 11606 ft | 101 kts | 88° |
| 2026-05-05 11:54 | 27.77061 | 86.74202 | 11971 ft | 92 kts | 185° |
| 2026-05-05 11:54 | 27.76712 | 86.73637 | 11948 ft | 101 kts | 266° |
| 2026-05-05 11:55 | 27.76579 | 86.72757 | 11653 ft | 137 kts | 244° |
| 2026-05-05 11:55 | 27.75927 | 86.71871 | 11536 ft | 155 kts | 210° |
| 2026-05-05 11:55 | 27.74972 | 86.71523 | 11889 ft | 137 kts | 194° |
| 2026-05-05 11:55 | 27.74050 | 86.71074 | 11744 ft | 159 kts | 216° |
| 2026-05-05 11:56 | 27.73070 | 86.70649 | 11899 ft | 151 kts | 179° |
| 2026-05-05 11:56 | 27.72018 | 86.70851 | 11946 ft | 156 kts | 174° |
| 2026-05-05 11:56 | 27.70934 | 86.70911 | 11949 ft | 156 kts | 168° |
| 2026-05-05 11:56 | 27.69941 | 86.71412 | 12004 ft | 157 kts | 157° |
| 2026-05-05 11:57 | 27.68970 | 86.71847 | 12377 ft | 143 kts | 160° |
| 2026-05-05 11:57 | 27.68054 | 86.72277 | 12583 ft | 147 kts | 156° |
| 2026-05-05 11:57 | 27.67165 | 86.72775 | 12916 ft | 136 kts | 158° |
| 2026-05-05 11:57 | 27.66299 | 86.73177 | 13047 ft | 141 kts | 171° |
| 2026-05-05 11:58 | 27.65307 | 86.73444 | 13084 ft | 150 kts | 143° |
| 2026-05-05 11:58 | 27.64951 | 86.74432 | 13585 ft | 136 kts | 88° |
| 2026-05-05 11:58 | 27.65000 | 86.75456 | 13996 ft | 123 kts | 105° |
| 2026-05-05 11:58 | 27.64260 | 86.75743 | 13578 ft | 162 kts | 227° |
| 2026-05-05 11:59 | 27.64209 | 86.74675 | 14201 ft | 130 kts | 291° |
| 2026-05-05 11:59 | 27.64770 | 86.73833 | 14351 ft | 142 kts | 321° |
| 2026-05-05 11:59 | 27.65651 | 86.73264 | 14580 ft | 144 kts | 328° |
| 2026-05-05 11:59 | 27.66517 | 86.72684 | 14732 ft | 150 kts | 327° |
| 2026-05-05 12:00 | 27.67295 | 86.71919 | 14799 ft | 153 kts | 296° |
| 2026-05-05 12:00 | 27.67748 | 86.70798 | 14743 ft | 162 kts | 306° |
| 2026-05-05 12:00 | 27.68772 | 86.70129 | 14470 ft | 186 kts | 351° |
| 2026-05-05 12:00 | 27.69939 | 86.70560 | 14565 ft | 182 kts | 48° |
| 2026-05-05 12:01 | 27.70418 | 86.71856 | 14676 ft | 172 kts | 76° |
| 2026-05-05 12:01 | 27.70760 | 86.73119 | 14632 ft | 169 kts | 76° |
| 2026-05-05 12:01 | 27.70367 | 86.74176 | 14765 ft | 147 kts | 143° |
| 2026-05-05 12:01 | 27.69472 | 86.74298 | 13328 ft | 129 kts | 220° |
| 2026-05-05 12:02 | 27.68983 | 86.73589 | 10529 ft | 118 kts | 240° |
| 2026-05-05 12:02 | 27.68623 | 86.72800 | 9307 ft | 43 kts | 88° |
| 2026-05-05 12:02 | 27.68607 | 86.72735 | 9288 ft | 3 kts | 3° |
| 2026-05-05 12:02 | 27.68763 | 86.72829 | 9347 ft | 387 kts | 50° |
| 2026-05-05 12:03 | 27.68743 | 86.72836 | 9336 ft | 0 kts | 115° |
| 2026-05-05 12:03 | 27.68218 | 86.74805 | 12756 ft | 0 kts | 5° |
| 2026-05-05 12:03 | 27.68985 | 86.74535 | 12628 ft | 77 kts | 288° |
| 2026-05-05 12:03 | 27.68887 | 86.73906 | 10722 ft | 100 kts | 257° |
| 2026-05-05 12:04 | 27.68843 | 86.73286 | 9616 ft | 2 kts | 114° |
| 2026-05-05 12:04 | 27.68788 | 86.73399 | 10645 ft | 0 kts | 118° |
| 2026-05-05 12:04 | 27.68281 | 86.73267 | 9727 ft | 151 kts | 268° |
| 2026-05-05 12:04 | 27.68632 | 86.72652 | 10207 ft | 98 kts | 347° |
| 2026-05-05 12:05 | 27.69269 | 86.72899 | 10265 ft | 99 kts | 69° |
| 2026-05-05 12:05 | 27.68867 | 86.73216 | 9680 ft | 96 kts | 223° |
| 2026-05-05 12:05 | 27.68644 | 86.72892 | 9337 ft | 3 kts | 238° |
| 2026-05-05 12:05 | 27.68640 | 86.72886 | 9334 ft | 0 kts | 237° |
| 2026-05-05 12:06 | 27.68642 | 86.72882 | 9332 ft | 5 kts | 325° |
| 2026-05-05 12:06 | 27.68666 | 86.72926 | 9357 ft | 12 kts | 63° |
| 2026-05-05 12:06 | 27.68727 | 86.73043 | 9423 ft | 22 kts | 61° |
| 2026-05-05 12:06 | 27.68760 | 86.73071 | 9448 ft | 0 kts | 20° |
| 2026-05-05 12:07 | 27.68776 | 86.73078 | 9450 ft | 0 kts | 241° |
| 2026-05-05 12:07 | 27.68779 | 86.73123 | 9471 ft | 0 kts | 243° |
| 2026-05-05 12:07 | 27.68786 | 86.73157 | 9471 ft | 13 kts | 239° |
| 2026-05-05 12:07 | 27.68675 | 86.72991 | 9397 ft | 0 kts | 195° |
| 2026-05-05 12:08 | 27.68721 | 86.73003 | 9404 ft | 377 kts | 193° |
| 2026-05-05 12:08 | 27.68775 | 86.73132 | 9471 ft | 1 kts | 241° |
| 2026-05-05 12:08 | 27.68728 | 86.73053 | 9428 ft | 46 kts | 235° |
| 2026-05-05 12:08 | 27.68671 | 86.72857 | 9335 ft | 0 kts | 12° |
| 2026-05-05 12:09 | 27.68761 | 86.73101 | 9462 ft | 377 kts | 102° |
| 2026-05-05 12:09 | 27.68757 | 86.73104 | 9464 ft | 12 kts | 242° |
| 2026-05-05 12:09 | 27.68724 | 86.73042 | 9423 ft | 26 kts | 237° |
| 2026-05-05 12:09 | 27.68725 | 86.73052 | 9427 ft | 0 kts | 81° |
| 2026-05-05 12:10 | 27.68755 | 86.73100 | 9462 ft | 10 kts | 239° |
| 2026-05-05 12:10 | 27.68725 | 86.73046 | 9425 ft | 35 kts | 237° |
| 2026-05-05 12:10 | 27.68774 | 86.73122 | 9471 ft | 0 kts | 239° |
| 2026-05-05 12:10 | 27.68719 | 86.73031 | 9417 ft | 50 kts | 235° |
| 2026-05-05 12:11 | 27.68781 | 86.73105 | 9471 ft | 0 kts | 189° |
| 2026-05-05 12:11 | 27.68762 | 86.73105 | 9464 ft | 0 kts | 239° |
| 2026-05-05 12:11 | 27.68751 | 86.73086 | 9453 ft | 8 kts | 238° |
| 2026-05-05 12:11 | 27.68607 | 86.72858 | 9302 ft | 3 kts | 135° |
| 2026-05-05 12:12 | 27.68516 | 86.72821 | 9465 ft | 206 kts | 208° |
| 2026-05-05 12:12 | 27.68727 | 86.72013 | 9999 ft | 134 kts | 37° |
| 2026-05-05 12:12 | 27.68669 | 86.72829 | 9314 ft | 44 kts | 351° |
| 2026-05-05 12:12 | 27.68657 | 86.72856 | 9314 ft | 0 kts | 162° |
| 2026-05-05 12:13 | 27.68656 | 86.72856 | 9314 ft | 0 kts | 162° |